createdAt,value
2023-04-20T00:00:09.421Z,9.20
2023-04-20T00:02:36.966Z,9.20
2023-04-20T00:05:05.541Z,9.20
2023-04-20T00:07:33.185Z,9.10
2023-04-20T00:10:00.586Z,9.20
2023-04-20T00:12:27.379Z,9.10
2023-04-20T00:14:54.093Z,9.20
2023-04-20T00:17:20.979Z,9.10
2023-04-20T00:19:47.865Z,9.10
2023-04-20T00:22:14.588Z,9.10
2023-04-20T00:24:41.301Z,9.00
2023-04-20T00:27:08.119Z,9.10
2023-04-20T00:29:34.865Z,9.00
2023-04-20T00:32:01.592Z,8.90
2023-04-20T00:34:28.337Z,8.90
2023-04-20T00:36:55.025Z,8.90
2023-04-20T00:39:21.695Z,8.90
2023-04-20T00:41:48.405Z,8.90
2023-04-20T00:44:15.240Z,8.90
2023-04-20T00:46:42.169Z,8.80
2023-04-20T00:49:09.930Z,8.80
2023-04-20T00:51:36.905Z,8.80
2023-04-20T00:54:03.680Z,8.80
2023-04-20T00:56:30.456Z,8.80
2023-04-20T00:58:57.162Z,8.70
2023-04-20T01:01:24.496Z,8.70
2023-04-20T01:03:51.270Z,8.70
2023-04-20T01:06:18.206Z,8.70
2023-04-20T01:08:51.940Z,8.70
2023-04-20T01:11:18.744Z,8.70
2023-04-20T01:13:45.572Z,8.60
2023-04-20T01:16:12.874Z,8.70
2023-04-20T01:18:44.109Z,8.60
2023-04-20T01:21:12.251Z,8.60
2023-04-20T01:23:39.067Z,8.60
2023-04-20T01:26:10.640Z,8.60
2023-04-20T01:28:37.970Z,8.60
2023-04-20T01:31:06.364Z,8.60
2023-04-20T01:33:33.454Z,8.60
2023-04-20T01:36:00.459Z,8.60
2023-04-20T01:38:27.911Z,8.60
2023-04-20T01:40:55.346Z,8.60
2023-04-20T01:43:23.013Z,8.60
2023-04-20T01:45:49.696Z,8.60
2023-04-20T01:48:16.488Z,8.60
2023-04-20T01:50:43.239Z,8.50
2023-04-20T01:53:10.427Z,8.50
2023-04-20T01:55:37.252Z,8.50
2023-04-20T01:58:04.041Z,8.50
2023-04-20T02:00:30.982Z,8.50
2023-04-20T02:02:57.903Z,8.40
2023-04-20T02:05:25.019Z,8.40
2023-04-20T02:07:51.918Z,8.40
2023-04-20T02:10:18.786Z,8.40
2023-04-20T02:12:45.505Z,8.30
2023-04-20T02:15:12.221Z,8.30
2023-04-20T02:17:39.015Z,8.20
2023-04-20T02:20:07.258Z,8.20
2023-04-20T02:22:35.077Z,8.20
2023-04-20T02:25:02.490Z,8.20
2023-04-20T02:27:29.215Z,8.20
2023-04-20T02:29:56.349Z,8.10
2023-04-20T02:32:23.294Z,8.10
2023-04-20T02:34:49.993Z,8.10
2023-04-20T02:37:16.767Z,8.10
2023-04-20T02:39:43.503Z,8.10
2023-04-20T02:42:10.154Z,8.00
2023-04-20T02:44:36.901Z,8.10
2023-04-20T02:47:03.613Z,8.10
2023-04-20T02:49:30.385Z,8.10
2023-04-20T02:51:57.069Z,8.10
2023-04-20T02:54:23.783Z,8.10
2023-04-20T02:56:50.508Z,8.10
2023-04-20T02:59:17.526Z,8.10
2023-04-20T03:01:44.460Z,8.10
2023-04-20T03:04:13.804Z,8.10
2023-04-20T03:06:40.650Z,8.10
2023-04-20T03:09:08.886Z,8.10
2023-04-20T03:11:35.800Z,8.10
2023-04-20T03:14:02.621Z,8.10
2023-04-20T03:16:29.535Z,8.10
2023-04-20T03:18:56.459Z,8.20
2023-04-20T03:21:23.403Z,8.10
2023-04-20T03:23:50.184Z,8.20
2023-04-20T03:26:17.803Z,8.20
2023-04-20T03:28:44.501Z,8.20
2023-04-20T03:31:11.781Z,8.30
2023-04-20T03:33:38.504Z,8.30
2023-04-20T03:36:06.356Z,8.30
2023-04-20T03:38:33.147Z,8.40
2023-04-20T03:40:59.868Z,8.40
2023-04-20T03:43:26.619Z,8.40
2023-04-20T03:45:53.341Z,8.50
2023-04-20T03:48:20.096Z,8.50
2023-04-20T03:50:46.770Z,8.60
2023-04-20T03:53:13.464Z,8.50
2023-04-20T03:55:40.120Z,8.60
2023-04-20T03:58:07.078Z,8.60
2023-04-20T04:00:33.759Z,8.70
2023-04-20T04:03:00.689Z,8.70
2023-04-20T04:05:27.964Z,8.70
2023-04-20T04:07:55.009Z,8.70
2023-04-20T04:10:21.832Z,8.80
2023-04-20T04:12:48.561Z,8.80
2023-04-20T04:15:15.371Z,8.80
2023-04-20T04:17:42.111Z,8.80
2023-04-20T04:20:09.534Z,8.80
2023-04-20T04:22:36.208Z,8.80
2023-04-20T04:25:03.252Z,8.80
2023-04-20T04:27:34.685Z,8.90
2023-04-20T04:30:03.560Z,8.90
2023-04-20T04:32:30.592Z,8.90
2023-04-20T04:34:58.133Z,8.90
2023-04-20T04:37:24.858Z,8.90
2023-04-20T04:39:51.623Z,9.00
2023-04-20T04:42:18.442Z,9.00
2023-04-20T04:44:45.166Z,9.00
2023-04-20T04:47:12.185Z,9.10
2023-04-20T04:49:40.790Z,9.10
2023-04-20T04:52:08.689Z,9.10
2023-04-20T04:54:35.416Z,9.10
2023-04-20T04:57:02.583Z,9.10
2023-04-20T04:59:29.331Z,9.10
2023-04-20T05:01:56.308Z,9.20
2023-04-20T05:04:23.180Z,9.20
2023-04-20T05:06:49.981Z,9.20
2023-04-20T05:09:16.841Z,9.30
2023-04-20T05:11:43.889Z,9.20
2023-04-20T05:14:10.651Z,9.30
2023-04-20T05:16:37.372Z,9.30
2023-04-20T05:19:04.237Z,9.30
2023-04-20T05:21:30.966Z,9.40
2023-04-20T05:23:57.650Z,9.40
2023-04-20T05:26:24.393Z,9.40
2023-04-20T05:28:51.411Z,9.40
2023-04-20T05:31:18.191Z,9.40
2023-04-20T05:33:44.900Z,9.40
2023-04-20T05:36:11.734Z,9.50
2023-04-20T05:38:39.198Z,9.50
2023-04-20T05:41:06.527Z,9.50
2023-04-20T05:43:33.295Z,9.50
2023-04-20T05:46:00.013Z,9.50
2023-04-20T05:48:30.309Z,9.60
2023-04-20T05:50:57.224Z,9.60
2023-04-20T05:53:23.931Z,9.60
2023-04-20T05:55:50.590Z,9.60
2023-04-20T05:58:17.526Z,9.60
2023-04-20T06:00:44.522Z,9.70
2023-04-20T06:03:11.441Z,9.60
2023-04-20T06:05:38.441Z,9.70
2023-04-20T06:08:05.254Z,9.70
2023-04-20T06:10:34.263Z,9.80
2023-04-20T06:13:01.306Z,9.70
2023-04-20T06:15:28.430Z,9.70
2023-04-20T06:17:55.369Z,9.70
2023-04-20T06:20:22.425Z,9.70
2023-04-20T06:22:49.510Z,9.70
2023-04-20T06:25:16.248Z,9.80
2023-04-20T06:27:43.174Z,9.80
2023-04-20T06:30:10.569Z,9.80
2023-04-20T06:32:38.100Z,9.90
2023-04-20T06:35:06.158Z,9.90
2023-04-20T06:37:32.979Z,9.90
2023-04-20T06:40:00.284Z,9.90
2023-04-20T06:42:27.165Z,9.90
2023-04-20T06:44:53.963Z,9.90
2023-04-20T06:47:20.792Z,10.00
2023-04-20T06:49:47.573Z,10.00
2023-04-20T06:52:14.238Z,10.00
2023-04-20T06:54:40.929Z,10.00
2023-04-20T06:57:07.652Z,10.00
2023-04-20T06:59:34.353Z,10.10
2023-04-20T07:02:01.554Z,10.10
2023-04-20T07:04:28.410Z,10.10
2023-04-20T07:06:55.166Z,10.10
2023-04-20T07:09:22.999Z,10.00
2023-04-20T07:11:49.977Z,10.00
2023-04-20T07:14:16.681Z,10.00
2023-04-20T07:16:43.443Z,9.90
2023-04-20T07:19:10.401Z,9.90
2023-04-20T07:21:37.195Z,9.80
2023-04-20T07:24:04.097Z,9.70
2023-04-20T07:26:31.178Z,9.70
2023-04-20T07:28:57.850Z,9.70
2023-04-20T07:31:24.658Z,9.60
2023-04-20T07:33:51.436Z,9.60
2023-04-20T07:36:18.135Z,9.60
2023-04-20T07:38:44.839Z,9.60
2023-04-20T07:41:12.000Z,9.60
2023-04-20T07:43:41.909Z,9.60
2023-04-20T07:46:08.691Z,9.50
2023-04-20T07:48:35.631Z,9.50
2023-04-20T07:51:02.539Z,9.50
2023-04-20T07:53:29.624Z,9.50
2023-04-20T07:55:56.440Z,9.50
2023-04-20T07:58:23.359Z,9.40
2023-04-20T08:00:50.057Z,9.30
2023-04-20T08:03:17.023Z,9.30
2023-04-20T08:05:44.262Z,9.30
2023-04-20T08:08:11.090Z,9.20
2023-04-20T08:10:37.859Z,9.10
2023-04-20T08:13:04.648Z,9.00
2023-04-20T08:15:31.612Z,8.90
2023-04-20T08:17:58.662Z,8.80
2023-04-20T08:20:25.471Z,8.80
2023-04-20T08:22:53.293Z,8.70
2023-04-20T08:25:20.226Z,8.70
2023-04-20T08:27:47.063Z,8.60
2023-04-20T08:30:13.875Z,8.60
2023-04-20T08:32:41.167Z,8.60
2023-04-20T08:35:08.686Z,8.60
2023-04-20T08:37:35.814Z,8.60
2023-04-20T08:40:02.701Z,8.60
2023-04-20T08:42:29.465Z,8.60
2023-04-20T08:44:57.476Z,8.60
2023-04-20T08:47:24.679Z,8.50
2023-04-20T08:49:54.697Z,8.50
2023-04-20T08:52:21.451Z,8.50
2023-04-20T08:54:55.848Z,8.50
2023-04-20T08:57:23.163Z,8.50
2023-04-20T08:59:49.946Z,8.40
2023-04-20T09:02:16.793Z,8.40
2023-04-20T09:04:43.783Z,8.50
2023-04-20T09:07:18.605Z,8.50
2023-04-20T09:09:59.897Z,8.50
2023-04-20T09:12:28.025Z,8.50
2023-04-20T09:14:55.930Z,8.40
2023-04-20T09:17:37.054Z,8.40
2023-04-20T09:20:07.539Z,8.50
2023-04-20T09:22:36.258Z,8.50
2023-04-20T09:25:19.160Z,8.50
2023-04-20T09:28:16.387Z,8.60
2023-04-20T09:30:45.450Z,8.70
2023-04-20T09:33:14.318Z,8.70
2023-04-20T09:35:45.433Z,8.70
2023-04-20T09:38:16.385Z,8.70
2023-04-20T09:40:43.397Z,8.70
2023-04-20T09:43:17.773Z,8.70
2023-04-20T09:45:44.857Z,8.70
2023-04-20T09:48:12.299Z,8.70
2023-04-20T09:50:48.449Z,8.80
2023-04-20T09:53:17.963Z,8.80
2023-04-20T09:55:50.078Z,8.90
2023-04-20T09:58:20.895Z,8.80
2023-04-20T10:00:48.005Z,8.80
2023-04-20T10:03:19.563Z,8.80
2023-04-20T10:05:46.540Z,8.80
2023-04-20T10:08:13.458Z,8.80
2023-04-20T10:10:47.836Z,8.80
2023-04-20T10:13:15.412Z,8.90
2023-04-20T10:15:42.866Z,9.10
2023-04-20T10:18:20.955Z,9.20
2023-04-20T10:20:48.003Z,9.30
2023-04-20T10:23:16.175Z,9.40
2023-04-20T10:25:45.348Z,9.50
2023-04-20T10:28:12.178Z,9.50
2023-04-20T10:30:50.755Z,9.50
2023-04-20T10:33:18.108Z,9.60
2023-04-20T10:35:47.906Z,9.60
2023-04-20T10:38:16.118Z,9.70
2023-04-20T10:40:43.199Z,9.60
2023-04-20T10:43:21.298Z,9.70
2023-04-20T10:45:49.506Z,9.70
2023-04-20T10:48:18.131Z,9.70
2023-04-20T10:50:45.387Z,9.80
2023-04-20T10:53:23.358Z,9.80
2023-04-20T10:56:00.574Z,9.80
2023-04-20T10:58:27.481Z,9.80
2023-04-20T11:01:01.825Z,9.90
2023-04-20T11:03:30.313Z,9.90
2023-04-20T11:06:04.247Z,10.00
2023-04-20T11:08:41.764Z,10.00
2023-04-20T11:11:24.906Z,10.00
2023-04-20T11:13:52.006Z,10.20
2023-04-20T11:16:19.281Z,10.40
2023-04-20T11:19:05.073Z,10.50
2023-04-20T11:21:41.503Z,10.70
2023-04-20T11:24:38.187Z,10.80
2023-04-20T11:27:05.135Z,10.90
2023-04-20T11:29:35.888Z,11.00
2023-04-20T11:32:05.679Z,11.00
2023-04-20T11:34:33.798Z,10.90
2023-04-20T11:37:09.727Z,10.90
2023-04-20T11:39:37.700Z,10.80
2023-04-20T11:42:04.805Z,10.70
2023-04-20T11:44:31.686Z,10.70
2023-04-20T11:46:59.014Z,10.70
2023-04-20T11:49:27.154Z,10.60
2023-04-20T11:51:54.191Z,10.70
2023-04-20T11:54:22.004Z,10.70
2023-04-20T11:56:48.975Z,10.70
2023-04-20T11:59:16.946Z,10.90
2023-04-20T12:01:43.834Z,11.00
2023-04-20T12:04:10.942Z,11.20
2023-04-20T12:06:37.943Z,11.30
2023-04-20T12:09:06.296Z,11.50
2023-04-20T12:11:33.095Z,11.70
2023-04-20T12:14:00.354Z,11.80
2023-04-20T12:16:27.135Z,11.90
2023-04-20T12:18:54.325Z,11.80
2023-04-20T12:21:21.327Z,11.80
2023-04-20T12:23:49.635Z,11.90
2023-04-20T12:26:16.761Z,12.00
2023-04-20T12:28:45.114Z,12.10
2023-04-20T12:31:12.059Z,12.20
2023-04-20T12:33:38.873Z,12.40
2023-04-20T12:36:06.178Z,12.40
2023-04-20T12:38:32.877Z,12.50
2023-04-20T12:40:59.612Z,12.50
2023-04-20T12:43:26.706Z,12.50
2023-04-20T12:45:53.391Z,12.60
2023-04-20T12:48:20.606Z,12.80
2023-04-20T12:50:47.461Z,12.90
2023-04-20T12:53:14.260Z,13.10
2023-04-20T12:55:41.024Z,13.30
2023-04-20T12:58:07.726Z,13.40
2023-04-20T13:00:34.642Z,13.50
2023-04-20T13:03:01.860Z,13.50
2023-04-20T13:05:29.144Z,13.40
2023-04-20T13:07:56.092Z,13.20
2023-04-20T13:10:22.896Z,12.90
2023-04-20T13:12:51.750Z,12.70
2023-04-20T13:15:31.799Z,12.60
2023-04-20T13:18:06.116Z,12.40
2023-04-20T13:20:33.056Z,12.30
2023-04-20T13:23:01.441Z,12.20
2023-04-20T13:25:32.582Z,12.10
2023-04-20T13:28:00.659Z,12.00
2023-04-20T13:30:27.572Z,11.90
2023-04-20T13:32:54.343Z,11.80
2023-04-20T13:35:21.244Z,11.70
2023-04-20T13:37:48.154Z,11.60
2023-04-20T13:40:14.956Z,11.60
2023-04-20T13:42:41.665Z,11.60
2023-04-20T13:45:10.270Z,11.60
2023-04-20T13:47:38.544Z,11.60
2023-04-20T13:50:06.728Z,11.70
2023-04-20T13:52:33.554Z,11.70
2023-04-20T13:55:00.322Z,11.80
2023-04-20T13:57:27.156Z,11.80
2023-04-20T13:59:54.022Z,11.80
2023-04-20T14:02:20.911Z,11.90
2023-04-20T14:04:48.090Z,11.90
2023-04-20T14:07:15.071Z,11.90
2023-04-20T14:09:44.362Z,12.00
2023-04-20T14:12:12.068Z,12.00
2023-04-20T14:14:38.956Z,12.10
2023-04-20T14:17:06.039Z,12.30
2023-04-20T14:19:32.734Z,12.30
2023-04-20T14:21:59.444Z,12.40
2023-04-20T14:24:26.155Z,12.50
2023-04-20T14:26:52.870Z,12.50
2023-04-20T14:29:19.737Z,12.60
2023-04-20T14:31:46.650Z,12.60
2023-04-20T14:34:14.178Z,12.60
2023-04-20T14:36:41.162Z,12.70
2023-04-20T14:39:08.068Z,12.60
2023-04-20T14:41:35.155Z,12.50
2023-04-20T14:44:01.970Z,12.40
2023-04-20T14:46:29.062Z,12.30
2023-04-20T14:48:55.790Z,12.30
2023-04-20T14:51:22.458Z,12.20
2023-04-20T14:53:49.225Z,12.20
2023-04-20T14:56:16.473Z,12.10
2023-04-20T14:58:43.273Z,12.20
2023-04-20T15:01:09.962Z,12.10
2023-04-20T15:03:37.107Z,12.10
2023-04-20T15:06:04.067Z,12.00
2023-04-20T15:08:30.840Z,12.00
2023-04-20T15:10:57.693Z,11.90
2023-04-20T15:13:25.416Z,11.90
2023-04-20T15:15:55.065Z,11.90
2023-04-20T15:18:22.348Z,11.90
2023-04-20T15:20:52.368Z,12.00
2023-04-20T15:23:19.665Z,12.00
2023-04-20T15:25:46.483Z,12.00
2023-04-20T15:28:13.417Z,12.10
2023-04-20T15:30:41.334Z,12.00
2023-04-20T15:33:08.392Z,12.00
2023-04-20T15:35:35.293Z,12.00
2023-04-20T15:38:02.302Z,11.90
2023-04-20T15:40:29.279Z,11.90
2023-04-20T15:42:56.037Z,11.90
2023-04-20T15:45:23.244Z,11.90
2023-04-20T15:47:51.167Z,11.90
2023-04-20T15:50:18.255Z,11.90
2023-04-20T15:52:45.832Z,11.90
2023-04-20T15:55:12.773Z,12.10
2023-04-20T15:57:39.598Z,12.20
2023-04-20T16:00:08.272Z,12.30
2023-04-20T16:02:36.043Z,12.40
2023-04-20T16:05:03.106Z,12.60
2023-04-20T16:07:29.884Z,12.80
2023-04-20T16:09:56.706Z,13.00
2023-04-20T16:12:23.596Z,13.10
2023-04-20T16:14:51.790Z,13.30
2023-04-20T16:17:20.101Z,13.40
2023-04-20T16:19:46.897Z,13.60
2023-04-20T16:22:14.165Z,13.70
2023-04-20T16:24:40.996Z,13.90
2023-04-20T16:27:07.807Z,13.90
2023-04-20T16:29:34.686Z,14.00
2023-04-20T16:32:01.340Z,14.10
2023-04-20T16:34:28.065Z,14.20
2023-04-20T16:36:54.764Z,14.30
2023-04-20T16:39:21.480Z,14.40
2023-04-20T16:41:48.182Z,14.40
2023-04-20T16:44:16.177Z,14.30
2023-04-20T16:46:44.071Z,14.20
2023-04-20T16:49:10.886Z,14.10
2023-04-20T16:51:37.958Z,14.00
2023-04-20T16:54:05.002Z,13.90
2023-04-20T16:56:31.764Z,13.80
2023-04-20T16:58:58.595Z,13.70
2023-04-20T17:01:25.409Z,13.60
2023-04-20T17:03:52.402Z,13.50
2023-04-20T17:06:19.350Z,13.50
2023-04-20T17:08:47.262Z,13.50
2023-04-20T17:11:14.089Z,13.60
2023-04-20T17:13:41.014Z,13.60
2023-04-20T17:16:07.765Z,13.60
2023-04-20T17:18:35.187Z,13.50
2023-04-20T17:21:02.311Z,13.40
2023-04-20T17:23:29.621Z,13.30
2023-04-20T17:25:57.330Z,13.40
2023-04-20T17:28:24.149Z,13.50
2023-04-20T17:30:50.895Z,13.50
2023-04-20T17:33:17.942Z,13.50
2023-04-20T17:35:46.370Z,13.60
2023-04-20T17:38:13.500Z,13.70
2023-04-20T17:40:40.516Z,13.90
2023-04-20T17:43:07.397Z,14.10
2023-04-20T17:45:34.178Z,14.20
2023-04-20T17:48:01.064Z,14.20
2023-04-20T17:50:27.774Z,14.20
2023-04-20T17:52:54.498Z,14.10
2023-04-20T17:55:21.224Z,14.00
2023-04-20T17:57:47.970Z,13.80
2023-04-20T18:00:16.155Z,13.60
2023-04-20T18:02:42.964Z,13.50
2023-04-20T18:05:10.402Z,13.40
2023-04-20T18:07:37.184Z,13.50
2023-04-20T18:10:05.045Z,13.50
2023-04-20T18:12:31.825Z,13.40
2023-04-20T18:14:58.516Z,13.50
2023-04-20T18:17:25.367Z,13.50
2023-04-20T18:19:52.134Z,13.50
2023-04-20T18:22:18.866Z,13.50
2023-04-20T18:24:45.666Z,13.30
2023-04-20T18:27:12.408Z,13.10
2023-04-20T18:29:39.093Z,12.90
2023-04-20T18:32:05.945Z,12.70
2023-04-20T18:34:32.699Z,12.60
2023-04-20T18:36:59.564Z,12.40
2023-04-20T18:39:26.429Z,12.30
2023-04-20T18:41:53.239Z,12.20
2023-04-20T18:44:20.291Z,12.10
2023-04-20T18:46:47.380Z,12.00
2023-04-20T18:49:14.136Z,11.90
2023-04-20T18:51:41.055Z,11.90
2023-04-20T18:54:07.790Z,11.70
2023-04-20T18:56:34.594Z,11.70
2023-04-20T18:59:01.610Z,11.60
2023-04-20T19:01:28.671Z,11.60
2023-04-20T19:03:55.830Z,11.50
2023-04-20T19:06:22.817Z,11.50
2023-04-20T19:08:52.525Z,11.40
2023-04-20T19:11:19.392Z,11.30
2023-04-20T19:13:46.101Z,11.30
2023-04-20T19:16:13.352Z,11.30
2023-04-20T19:18:40.163Z,11.20
2023-04-20T19:21:07.062Z,11.20
2023-04-20T19:23:35.723Z,11.20
2023-04-20T19:26:02.767Z,11.10
2023-04-20T19:28:30.108Z,11.10
2023-04-20T19:30:57.998Z,11.10
2023-04-20T19:33:24.805Z,11.10
2023-04-20T19:35:51.736Z,11.10
2023-04-20T19:38:24.349Z,11.00
2023-04-20T19:40:51.858Z,11.00
2023-04-20T19:43:18.672Z,11.00
2023-04-20T19:45:45.465Z,10.90
2023-04-20T19:48:12.364Z,10.90
2023-04-20T19:50:39.346Z,10.90
2023-04-20T19:53:06.540Z,10.90
2023-04-20T19:55:33.443Z,10.80
2023-04-20T19:58:00.212Z,10.80
2023-04-20T20:00:27.054Z,10.80
2023-04-20T20:02:53.870Z,10.70
2023-04-20T20:05:20.822Z,10.70
2023-04-20T20:07:47.548Z,10.60
2023-04-20T20:10:14.320Z,10.60
2023-04-20T20:12:41.015Z,10.60
2023-04-20T20:15:08.080Z,10.50
2023-04-20T20:17:34.943Z,10.50
2023-04-20T20:20:02.275Z,10.50
2023-04-20T20:22:29.130Z,10.50
2023-04-20T20:24:57.266Z,10.50
2023-04-20T20:27:23.948Z,10.50
2023-04-20T20:29:50.720Z,10.40
2023-04-20T20:32:17.517Z,10.40
2023-04-20T20:34:44.197Z,10.40
2023-04-20T20:37:10.987Z,10.40
2023-04-20T20:39:38.857Z,10.40
2023-04-20T20:42:07.723Z,10.40
2023-04-20T20:44:38.912Z,10.40
2023-04-20T20:47:06.656Z,10.40
2023-04-20T20:49:33.725Z,10.30
2023-04-20T20:52:02.097Z,10.30
2023-04-20T20:54:28.905Z,10.30
2023-04-20T20:56:55.636Z,10.40
2023-04-20T20:59:22.374Z,10.40
2023-04-20T21:01:49.163Z,10.30
2023-04-20T21:04:15.959Z,10.30
2023-04-20T21:06:42.679Z,10.30
2023-04-20T21:09:10.685Z,10.30
2023-04-20T21:11:37.446Z,10.30
2023-04-20T21:14:04.155Z,10.30
2023-04-20T21:16:30.923Z,10.30
2023-04-20T21:18:57.749Z,10.40
2023-04-20T21:21:24.458Z,10.40
2023-04-20T21:23:51.233Z,10.30
2023-04-20T21:26:17.993Z,10.40
2023-04-20T21:28:44.782Z,10.30
2023-04-20T21:31:11.543Z,10.30
2023-04-20T21:33:38.461Z,10.30
2023-04-20T21:36:05.685Z,10.30
2023-04-20T21:38:32.367Z,10.30
2023-04-20T21:40:59.088Z,10.30
2023-04-20T21:43:25.797Z,10.30
2023-04-20T21:45:52.769Z,10.30
2023-04-20T21:48:19.612Z,10.30
2023-04-20T21:50:46.267Z,10.30
2023-04-20T21:53:12.938Z,10.30
2023-04-20T21:55:39.664Z,10.30
2023-04-20T21:58:06.367Z,10.30
2023-04-20T22:00:33.071Z,10.30
2023-04-20T22:02:59.963Z,10.30
2023-04-20T22:05:27.795Z,10.30
2023-04-20T22:07:54.529Z,10.30
2023-04-20T22:10:21.278Z,10.30
2023-04-20T22:12:48.047Z,10.30
2023-04-20T22:15:15.393Z,10.30
2023-04-20T22:17:45.328Z,10.30
2023-04-20T22:20:13.252Z,10.20
2023-04-20T22:22:40.212Z,10.30
2023-04-20T22:25:09.038Z,10.30
2023-04-20T22:27:37.027Z,10.30
2023-04-20T22:30:05.566Z,10.30
2023-04-20T22:32:32.384Z,10.30
2023-04-20T22:34:59.054Z,10.30
2023-04-20T22:37:26.012Z,10.30
2023-04-20T22:39:52.717Z,10.30
2023-04-20T22:42:19.493Z,10.30
2023-04-20T22:44:46.315Z,10.30
2023-04-20T22:47:13.181Z,10.30
2023-04-20T22:49:40.154Z,10.30
2023-04-20T22:52:06.884Z,10.30
2023-04-20T22:54:33.605Z,10.30
2023-04-20T22:57:01.205Z,10.20
2023-04-20T22:59:28.020Z,10.20
2023-04-20T23:01:54.753Z,10.20
2023-04-20T23:04:21.591Z,10.10
2023-04-20T23:06:48.354Z,10.20
2023-04-20T23:09:20.411Z,10.20
2023-04-20T23:11:47.400Z,10.10
2023-04-20T23:14:14.158Z,10.10
2023-04-20T23:16:41.067Z,10.10
2023-04-20T23:19:07.834Z,10.10
2023-04-20T23:21:34.740Z,10.00
2023-04-20T23:24:01.456Z,10.00
2023-04-20T23:26:28.198Z,9.90
2023-04-20T23:28:55.007Z,9.90
2023-04-20T23:31:21.817Z,9.90
2023-04-20T23:33:48.827Z,9.90
2023-04-20T23:36:15.841Z,9.80
2023-04-20T23:38:42.992Z,9.80
2023-04-20T23:41:14.584Z,9.80
2023-04-20T23:43:41.907Z,9.80
2023-04-20T23:46:08.967Z,9.70
2023-04-20T23:48:35.826Z,9.70
2023-04-20T23:51:02.590Z,9.70
2023-04-20T23:53:29.431Z,9.70
2023-04-20T23:55:56.240Z,9.70
2023-04-20T23:58:27.173Z,9.60
